Time;durP1;ratioP1;P1;durP2;ratioP2;P2;SDS_P1;SDS_P2;PMS_P1;PMS_P2;Temp;Humidity;BMP_temperature;BMP_pressure;BME280_temperature;BME280_humidity;BME280_pressure;Samples;Min_cycle;Max_cycle;Signal;HPM_P1;HPM_P2
2024/04/16 00:01:38;;;;;;;4.90;2.03;;;7.50;99.90;;;;;;5433107;26;20284;-65
2024/04/16 00:04:04;;;;;;;5.70;2.20;;;7.60;99.90;;;;;;5433959;26;20302;-65
2024/04/16 00:06:31;;;;;;;3.77;1.60;;;7.50;99.90;;;;;;5437465;26;20274;-64
2024/04/16 00:08:56;;;;;;;3.27;1.70;;;7.40;99.90;;;;;;5436306;26;20268;-65
2024/04/16 00:11:22;;;;;;;4.73;2.23;;;7.50;99.90;;;;;;5435255;26;20463;-65
2024/04/16 00:13:48;;;;;;;8.43;2.20;;;7.60;99.90;;;;;;5389599;26;20239;-65
2024/04/16 00:16:14;;;;;;;11.07;1.70;;;7.60;99.90;;;;;;5435125;26;21009;-65
2024/04/16 00:18:39;;;;;;;4.83;1.93;;;7.50;99.90;;;;;;5433681;26;20230;-65
2024/04/16 00:21:05;;;;;;;4.67;1.83;;;7.50;99.90;;;;;;5440520;26;20289;-65
2024/04/16 00:23:31;;;;;;;4.60;1.90;;;7.50;99.90;;;;;;5439273;26;20284;-65
2024/04/16 00:25:56;;;;;;;3.77;2.00;;;7.40;99.90;;;;;;5440131;26;20511;-65
2024/04/16 00:28:22;;;;;;;6.50;2.07;;;7.40;99.90;;;;;;5437271;26;20238;-65
2024/04/16 00:30:48;;;;;;;2.93;1.57;;;7.40;99.90;;;;;;5438832;26;20246;-65
2024/04/16 00:33:14;;;;;;;3.57;1.40;;;7.40;99.90;;;;;;5436841;26;20222;-65
2024/04/16 00:35:43;;;;;;;4.67;1.20;;;7.40;99.90;;;;;;5437265;26;20288;-65
2024/04/16 00:38:11;;;;;;;3.50;1.60;;;7.40;99.90;;;;;;5439754;26;20238;-65
2024/04/16 00:40:37;;;;;;;3.63;1.40;;;7.40;99.90;;;;;;5440306;26;20536;-65
2024/04/16 00:43:16;;;;;;;2.60;1.57;;;7.30;99.90;;;;;;5439470;26;20466;-64
2024/04/16 00:45:55;;;;;;;1.90;1.23;;;7.20;99.90;;;;;;5439094;26;20237;-65
2024/04/16 00:48:24;;;;;;;1.67;1.20;;;7.20;99.90;;;;;;5438685;26;20554;-65
2024/04/16 00:50:50;;;;;;;4.10;1.33;;;7.10;99.90;;;;;;5439304;26;20456;-64
2024/04/16 00:53:18;;;;;;;3.67;1.30;;;7.10;99.90;;;;;;5439597;26;20459;-65
2024/04/16 00:55:44;;;;;;;4.10;1.40;;;7.20;99.90;;;;;;5440532;26;20455;-65
2024/04/16 00:58:12;;;;;;;2.87;1.30;;;7.30;99.90;;;;;;5437070;26;20513;-65
2024/04/16 01:00:38;;;;;;;2.50;1.30;;;7.30;99.90;;;;;;5440242;26;20560;-65
2024/04/16 01:03:03;;;;;;;3.50;1.37;;;7.20;99.90;;;;;;5439212;26;20451;-65
2024/04/16 01:05:30;;;;;;;3.37;1.43;;;7.30;99.90;;;;;;5440067;26;20280;-65
2024/04/16 01:07:56;;;;;;;5.40;1.20;;;7.20;99.90;;;;;;5439285;26;20281;-64
2024/04/16 01:10:21;;;;;;;2.23;1.40;;;7.20;99.90;;;;;;5439493;26;20860;-65
2024/04/16 01:12:47;;;;;;;4.63;1.73;;;7.20;99.90;;;;;;5438707;26;20246;-65
2024/04/16 01:15:13;;;;;;;2.70;1.33;;;7.20;99.90;;;;;;5439098;26;20320;-65
2024/04/16 01:17:41;;;;;;;2.90;0.93;;;7.20;99.90;;;;;;5440316;26;20234;-64
2024/04/16 01:20:07;;;;;;;2.10;1.10;;;7.20;99.90;;;;;;5437438;26;21093;-65
2024/04/16 01:22:33;;;;;;;2.23;0.90;;;7.30;99.90;;;;;;5439158;26;20504;-65
2024/04/16 01:24:58;;;;;;;5.83;1.50;;;7.30;99.90;;;;;;5438381;26;20573;-65
2024/04/16 01:27:24;;;;;;;2.13;1.03;;;7.30;99.90;;;;;;5439662;26;20241;-65
2024/04/16 01:29:50;;;;;;;1.80;1.03;;;7.20;99.90;;;;;;5438995;26;20348;-65
2024/04/16 01:32:15;;;;;;;4.00;2.00;;;7.20;99.90;;;;;;5436304;26;20789;-64
2024/04/16 01:34:41;;;;;;;3.10;1.43;;;7.20;99.90;;;;;;5438800;26;20284;-65
2024/04/16 01:37:08;;;;;;;4.37;1.73;;;7.20;99.90;;;;;;5438357;26;20260;-65
2024/04/16 01:39:33;;;;;;;3.40;1.87;;;7.20;99.90;;;;;;5440445;26;20535;-65
2024/04/16 01:41:59;;;;;;;4.20;1.40;;;7.20;99.90;;;;;;5437337;26;20507;-65
2024/04/16 01:44:25;;;;;;;5.33;1.80;;;7.20;99.90;;;;;;5422555;26;20467;-65
2024/04/16 01:46:51;;;;;;;2.83;1.70;;;7.20;99.90;;;;;;5437461;26;20542;-65
2024/04/16 01:49:17;;;;;;;3.07;1.30;;;7.20;99.90;;;;;;5438505;26;20273;-64
2024/04/16 01:51:43;;;;;;;4.97;2.37;;;7.10;99.90;;;;;;5438141;26;20234;-65
2024/04/16 01:54:09;;;;;;;3.80;2.00;;;7.10;99.90;;;;;;5438550;26;20510;-65
2024/04/16 01:56:34;;;;;;;3.80;1.33;;;7.10;99.90;;;;;;5438488;26;20241;-65
2024/04/16 01:59:02;;;;;;;4.83;2.03;;;7.10;99.90;;;;;;5433300;26;20245;-65
2024/04/16 02:01:27;;;;;;;3.83;1.20;;;7.10;99.90;;;;;;5432986;26;20249;-65
2024/04/16 02:03:53;;;;;;;3.23;1.33;;;7.10;99.90;;;;;;5434172;26;20511;-65
2024/04/16 02:06:19;;;;;;;2.73;1.40;;;7.10;99.90;;;;;;5435729;26;20252;-65
2024/04/16 02:08:44;;;;;;;2.47;1.37;;;7.20;99.90;;;;;;5435556;26;20230;-65
2024/04/16 02:11:10;;;;;;;1.83;1.20;;;7.30;99.90;;;;;;5391406;26;20283;-64
2024/04/16 02:13:36;;;;;;;5.63;1.53;;;7.30;99.90;;;;;;5440300;26;20280;-65
2024/04/16 02:16:02;;;;;;;4.73;1.53;;;7.30;99.90;;;;;;5434569;26;20293;-65
2024/04/16 02:18:27;;;;;;;3.67;1.90;;;7.20;99.90;;;;;;5437562;26;20965;-65
2024/04/16 02:20:53;;;;;;;4.77;1.80;;;7.20;99.90;;;;;;5434159;26;20229;-64
2024/04/16 02:23:19;;;;;;;2.00;1.70;;;7.20;99.90;;;;;;5437952;26;20263;-65
2024/04/16 02:25:49;;;;;;;1.63;1.27;;;7.30;99.90;;;;;;5434957;26;20268;-65
2024/04/16 02:28:16;;;;;;;4.30;1.63;;;7.20;99.90;;;;;;5435420;26;20245;-65
2024/04/16 02:30:41;;;;;;;3.17;1.43;;;7.10;99.90;;;;;;5434710;26;20459;-65
2024/04/16 02:33:14;;;;;;;2.83;1.40;;;7.20;99.90;;;;;;5437002;26;20297;-64
2024/04/16 02:35:39;;;;;;;5.87;2.00;;;7.20;99.90;;;;;;5434992;26;20462;-65
2024/04/16 02:38:05;;;;;;;4.23;1.83;;;7.10;99.90;;;;;;5437474;26;21263;-65
2024/04/16 02:40:31;;;;;;;4.73;1.67;;;7.10;99.90;;;;;;5400175;26;20293;-65
2024/04/16 02:42:56;;;;;;;3.13;1.83;;;7.00;99.90;;;;;;5434063;26;20720;-65
2024/04/16 02:45:22;;;;;;;1.33;1.00;;;7.00;99.90;;;;;;5391090;26;20375;-65
2024/04/16 02:47:48;;;;;;;2.40;1.87;;;7.00;99.90;;;;;;5437720;26;20313;-65
2024/04/16 02:50:14;;;;;;;3.70;1.53;;;7.00;99.90;;;;;;5435206;26;20341;-65
2024/04/16 02:52:40;;;;;;;5.17;1.80;;;7.00;99.90;;;;;;5435774;26;20558;-65
2024/04/16 02:55:07;;;;;;;2.30;1.40;;;7.00;99.90;;;;;;5434712;26;20451;-65
2024/04/16 02:57:36;;;;;;;2.77;1.80;;;7.10;99.90;;;;;;5433919;26;21180;-65
2024/04/16 03:00:03;;;;;;;1.97;1.33;;;7.10;99.90;;;;;;5433011;26;20527;-65
2024/04/16 03:02:29;;;;;;;3.53;1.73;;;7.10;99.90;;;;;;5437661;26;20455;-64
2024/04/16 03:04:54;;;;;;;4.60;1.93;;;7.10;99.90;;;;;;5434071;26;20572;-65
2024/04/16 03:07:20;;;;;;;3.93;1.37;;;7.10;99.90;;;;;;5392589;26;20232;-65
2024/04/16 03:09:46;;;;;;;4.67;1.60;;;7.10;99.90;;;;;;5431815;26;20284;-66
2024/04/16 03:12:12;;;;;;;5.57;1.93;;;7.10;99.90;;;;;;5434962;26;20492;-66
2024/04/16 03:14:38;;;;;;;5.80;2.30;;;7.10;99.90;;;;;;5437075;26;20272;-65
2024/04/16 03:17:04;;;;;;;11.73;1.90;;;7.20;99.90;;;;;;5436807;26;20451;-64
2024/04/16 03:19:30;;;;;;;4.33;1.43;;;7.10;99.90;;;;;;5435763;26;20233;-65
2024/04/16 03:21:56;;;;;;;2.47;1.53;;;7.20;99.90;;;;;;5434273;26;20573;-65
2024/04/16 03:24:21;;;;;;;5.33;1.40;;;7.10;99.90;;;;;;5436244;26;20759;-65
2024/04/16 03:26:47;;;;;;;4.00;1.60;;;7.00;99.90;;;;;;5436374;26;20238;-65
2024/04/16 03:29:13;;;;;;;5.37;1.43;;;7.00;99.90;;;;;;5435807;26;20286;-65
2024/04/16 03:31:38;;;;;;;2.03;1.53;;;6.90;99.90;;;;;;5434915;26;20260;-65
2024/04/16 03:34:04;;;;;;;3.40;1.83;;;6.90;99.90;;;;;;5433402;26;20631;-65
2024/04/16 03:36:30;;;;;;;5.40;1.90;;;6.90;99.90;;;;;;5436457;26;20350;-65
2024/04/16 03:38:56;;;;;;;5.33;2.10;;;7.00;99.90;;;;;;5435365;26;20238;-65
2024/04/16 03:41:22;;;;;;;2.30;1.60;;;7.00;99.90;;;;;;5433113;26;20600;-65
2024/04/16 03:43:51;;;;;;;3.43;1.67;;;7.10;99.90;;;;;;5435120;26;20279;-65
2024/04/16 03:46:17;;;;;;;6.30;2.00;;;7.00;99.90;;;;;;5435516;26;20562;-65
2024/04/16 03:48:42;;;;;;;5.07;1.90;;;6.80;99.90;;;;;;5435292;26;20456;-65
2024/04/16 03:51:08;;;;;;;2.83;1.40;;;6.80;99.90;;;;;;5434655;26;20351;-65
2024/04/16 03:53:34;;;;;;;3.63;1.97;;;6.70;99.90;;;;;;5436081;26;20283;-65
2024/04/16 03:56:00;;;;;;;4.50;1.97;;;6.70;99.90;;;;;;5437057;26;20250;-65
2024/04/16 03:58:29;;;;;;;4.60;1.83;;;6.70;99.90;;;;;;5440047;26;20241;-66
2024/04/16 04:01:03;;;;;;;5.90;1.90;;;6.60;99.90;;;;;;5433738;26;20451;-65
2024/04/16 04:03:29;;;;;;;4.67;1.70;;;6.70;99.90;;;;;;5439056;26;20467;-65
2024/04/16 04:05:55;;;;;;;5.40;2.10;;;6.80;99.90;;;;;;5438166;26;20443;-65
2024/04/16 04:08:21;;;;;;;3.20;1.97;;;6.80;99.90;;;;;;5439652;26;20565;-65
2024/04/16 04:10:47;;;;;;;4.30;2.20;;;6.80;99.90;;;;;;5435418;26;20573;-65
2024/04/16 04:13:13;;;;;;;6.10;1.87;;;6.70;99.90;;;;;;5438451;26;20285;-65
2024/04/16 04:15:39;;;;;;;6.70;2.17;;;6.80;99.90;;;;;;5437332;26;20237;-65
2024/04/16 04:18:05;;;;;;;3.93;2.10;;;6.90;99.90;;;;;;5437739;26;20237;-65
2024/04/16 04:20:31;;;;;;;6.20;2.77;;;6.90;99.90;;;;;;5439033;26;20455;-65
2024/04/16 04:22:57;;;;;;;3.07;2.77;;;6.90;99.90;;;;;;5439307;26;20463;-65
2024/04/16 04:25:23;;;;;;;3.10;2.50;;;6.90;99.90;;;;;;5437952;26;21075;-65
2024/04/16 04:27:49;;;;;;;3.10;2.57;;;6.90;99.90;;;;;;5435335;26;20563;-65
2024/04/16 04:30:15;;;;;;;10.20;4.90;;;6.80;99.90;;;;;;5438573;26;21023;-65
2024/04/16 04:32:41;;;;;;;5.40;2.20;;;6.80;99.90;;;;;;5435866;26;20475;-65
2024/04/16 04:35:06;;;;;;;4.33;3.00;;;6.80;99.90;;;;;;5436788;26;20353;-65
2024/04/16 04:37:32;;;;;;;3.00;2.40;;;6.70;99.90;;;;;;5438469;26;20287;-65
2024/04/16 04:39:58;;;;;;;3.13;2.13;;;6.70;99.90;;;;;;5436286;26;23117;-65
2024/04/16 04:42:25;;;;;;;4.67;2.60;;;6.70;99.90;;;;;;5437761;26;20463;-65
2024/04/16 04:44:51;;;;;;;6.10;2.57;;;6.80;99.90;;;;;;5428028;26;20266;-65
2024/04/16 04:47:19;;;;;;;3.40;2.47;;;6.80;99.90;;;;;;5435035;26;20447;-65
2024/04/16 04:49:45;;;;;;;3.50;2.30;;;6.80;99.90;;;;;;5432727;26;20509;-65
2024/04/16 04:52:10;;;;;;;4.90;1.90;;;6.90;99.90;;;;;;5430111;26;20459;-65
2024/04/16 04:54:36;;;;;;;2.73;2.10;;;6.90;99.90;;;;;;5434967;26;20518;-65
2024/04/16 04:57:02;;;;;;;1.93;1.63;;;7.00;99.90;;;;;;5435644;26;20234;-64
2024/04/16 04:59:28;;;;;;;3.13;1.77;;;6.90;99.90;;;;;;5393070;26;20471;-65
2024/04/16 05:01:54;;;;;;;2.70;1.93;;;6.70;99.90;;;;;;5434871;26;20467;-65
2024/04/16 05:04:20;;;;;;;4.00;1.90;;;6.60;99.90;;;;;;5438404;26;20447;-65
2024/04/16 05:06:46;;;;;;;5.43;1.73;;;6.60;99.90;;;;;;5432430;26;20870;-64
2024/04/16 05:09:12;;;;;;;2.87;2.23;;;6.60;99.90;;;;;;5437135;26;20455;-66
2024/04/16 05:11:38;;;;;;;3.33;2.00;;;6.70;99.90;;;;;;5435813;26;20516;-65
2024/04/16 05:14:07;;;;;;;6.93;2.47;;;6.80;99.90;;;;;;5432009;26;20352;-65
2024/04/16 05:16:33;;;;;;;3.40;2.63;;;6.80;99.90;;;;;;5436335;26;20802;-65
2024/04/16 05:18:59;;;;;;;8.30;2.47;;;6.90;99.90;;;;;;5434329;26;20544;-65
2024/04/16 05:21:24;;;;;;;4.37;2.37;;;6.90;99.90;;;;;;5437108;26;20516;-65
2024/04/16 05:23:50;;;;;;;7.57;2.97;;;6.90;99.90;;;;;;5434614;26;20243;-65
2024/04/16 05:26:17;;;;;;;5.10;2.80;;;7.00;99.90;;;;;;5437291;26;20250;-65
2024/04/16 05:28:42;;;;;;;2.77;2.30;;;7.00;99.90;;;;;;5362745;26;20280;-65
2024/04/16 05:31:08;;;;;;;4.27;2.57;;;7.10;99.90;;;;;;5434119;26;21004;-65
2024/04/16 05:33:34;;;;;;;2.80;2.50;;;7.10;99.90;;;;;;5436595;26;20303;-65
2024/04/16 05:35:59;;;;;;;4.07;2.77;;;7.20;99.90;;;;;;5433962;26;20244;-65
2024/04/16 05:38:25;;;;;;;3.33;2.50;;;7.10;99.90;;;;;;5438180;26;20238;-65
2024/04/16 05:40:51;;;;;;;3.00;2.47;;;7.10;99.90;;;;;;5432063;26;21157;-65
2024/04/16 05:43:16;;;;;;;5.80;2.60;;;7.10;99.90;;;;;;5437810;26;20233;-65
2024/04/16 05:45:42;;;;;;;3.17;2.87;;;7.10;99.90;;;;;;5434751;26;20234;-65
2024/04/16 05:48:08;;;;;;;2.53;1.87;;;7.20;99.90;;;;;;5433279;26;20849;-65
2024/04/16 05:50:33;;;;;;;3.60;2.80;;;7.20;99.90;;;;;;5404618;26;20242;-65
2024/04/16 05:52:59;;;;;;;5.73;3.13;;;7.30;99.90;;;;;;5435045;26;20907;-65
2024/04/16 05:55:26;;;;;;;4.20;3.13;;;7.30;99.90;;;;;;5362146;26;20241;-65
2024/04/16 05:57:51;;;;;;;5.87;3.20;;;7.30;99.90;;;;;;5427008;26;20445;-65
2024/04/16 06:00:17;;;;;;;5.00;3.10;;;7.40;99.90;;;;;;5434822;26;21102;-65
2024/04/16 06:02:43;;;;;;;5.73;2.90;;;7.40;99.90;;;;;;5428287;26;20237;-65
2024/04/16 06:05:08;;;;;;;5.77;2.50;;;7.50;99.90;;;;;;5427280;26;20280;-65
2024/04/16 06:07:34;;;;;;;3.90;2.90;;;7.50;99.90;;;;;;5430675;26;20704;-65
2024/04/16 06:10:00;;;;;;;4.43;2.40;;;7.50;99.90;;;;;;5433092;26;20601;-65
2024/04/16 06:12:26;;;;;;;5.03;2.97;;;7.50;99.90;;;;;;5404982;26;20712;-65
2024/04/16 06:14:51;;;;;;;5.87;2.60;;;7.50;99.90;;;;;;5402359;26;20282;-65
2024/04/16 06:17:17;;;;;;;7.80;2.60;;;7.50;99.90;;;;;;5427425;26;20469;-65
2024/04/16 06:19:45;;;;;;;6.60;3.30;;;7.40;99.90;;;;;;5432047;26;20229;-64
2024/04/16 06:22:11;;;;;;;5.87;2.20;;;7.40;99.90;;;;;;5431999;26;20229;-64
2024/04/16 06:24:36;;;;;;;4.40;2.67;;;7.40;99.90;;;;;;5434494;26;20537;-64
2024/04/16 06:27:03;;;;;;;3.40;2.67;;;7.30;99.90;;;;;;5425994;26;20505;-64
2024/04/16 06:29:28;;;;;;;4.30;2.10;;;7.30;99.90;;;;;;5431734;26;20246;-64
2024/04/16 06:31:54;;;;;;;7.13;2.57;;;7.40;99.90;;;;;;5427686;26;20522;-64
2024/04/16 06:34:20;;;;;;;3.87;2.33;;;7.40;99.90;;;;;;5430994;26;20242;-64
2024/04/16 06:36:45;;;;;;;7.77;2.27;;;7.40;99.90;;;;;;5433784;26;20241;-64
2024/04/16 06:39:11;;;;;;;3.00;2.47;;;7.40;99.90;;;;;;5439508;26;20272;-64
2024/04/16 06:41:37;;;;;;;4.37;2.20;;;7.40;99.90;;;;;;5439071;26;20771;-64
2024/04/16 06:44:02;;;;;;;4.90;2.00;;;7.40;99.90;;;;;;5439499;26;20277;-64
2024/04/16 06:46:28;;;;;;;3.20;2.00;;;7.30;99.90;;;;;;5439247;26;20813;-64
2024/04/16 06:48:54;;;;;;;1.60;1.50;;;7.30;99.90;;;;;;5435168;26;20608;-64
2024/04/16 06:51:19;;;;;;;2.80;1.90;;;7.20;99.90;;;;;;5438195;26;20322;-64
2024/04/16 06:53:45;;;;;;;2.53;1.53;;;7.10;99.90;;;;;;5436336;26;20242;-64
2024/04/16 06:56:11;;;;;;;3.73;1.93;;;7.10;99.90;;;;;;5438247;26;20309;-64
2024/04/16 06:58:36;;;;;;;3.83;2.13;;;7.10;99.90;;;;;;5434567;26;20812;-65
2024/04/16 07:01:02;;;;;;;3.30;1.47;;;7.10;99.90;;;;;;5431901;26;20256;-64
2024/04/16 07:03:28;;;;;;;2.53;2.00;;;7.10;99.90;;;;;;5432253;26;20241;-64
2024/04/16 07:05:54;;;;;;;1.80;1.67;;;7.00;99.90;;;;;;5436747;26;20238;-64
2024/04/16 07:08:20;;;;;;;1.63;1.40;;;7.10;99.90;;;;;;5434919;26;20459;-64
2024/04/16 07:10:46;;;;;;;2.00;1.30;;;7.00;99.90;;;;;;5437329;26;20250;-64
2024/04/16 07:13:12;;;;;;;1.43;1.17;;;7.00;99.90;;;;;;5424257;26;20475;-64
2024/04/16 07:15:39;;;;;;;2.50;1.20;;;7.00;99.90;;;;;;5435370;26;20467;-65
2024/04/16 07:18:04;;;;;;;1.53;1.10;;;6.90;99.90;;;;;;5435166;26;21069;-64
2024/04/16 07:20:31;;;;;;;2.67;1.00;;;6.90;99.90;;;;;;5438349;26;20495;-64
2024/04/16 07:22:57;;;;;;;1.53;0.90;;;6.90;99.90;;;;;;5436258;26;20452;-64
2024/04/16 07:25:23;;;;;;;2.90;1.30;;;6.80;99.90;;;;;;5438394;26;20813;-64
2024/04/16 07:27:48;;;;;;;1.10;0.93;;;6.70;99.90;;;;;;5392180;26;20516;-64
2024/04/16 07:30:14;;;;;;;1.20;0.90;;;6.60;99.90;;;;;;5445443;26;20315;-64
2024/04/16 07:32:40;;;;;;;2.40;0.90;;;6.60;99.90;;;;;;5443533;26;20233;-64
2024/04/16 07:35:06;;;;;;;1.20;1.10;;;6.50;99.90;;;;;;5445276;26;20693;-64
2024/04/16 07:37:31;;;;;;;0.67;0.67;;;6.50;99.90;;;;;;5444583;26;20241;-65
2024/04/16 07:39:57;;;;;;;1.17;0.77;;;6.50;99.90;;;;;;5440598;26;20237;-64
2024/04/16 07:42:23;;;;;;;1.57;0.90;;;6.30;99.90;;;;;;5444638;26;20345;-64
2024/04/16 07:44:48;;;;;;;1.60;0.90;;;6.20;99.90;;;;;;5442274;26;20949;-65
2024/04/16 07:47:14;;;;;;;1.73;0.70;;;6.20;99.90;;;;;;5438939;26;20234;-64
2024/04/16 07:49:40;;;;;;;0.90;0.60;;;6.30;99.90;;;;;;5442587;26;20285;-64
2024/04/16 07:52:06;;;;;;;1.97;0.80;;;6.40;99.90;;;;;;5399267;26;20818;-64
2024/04/16 07:54:31;;;;;;;1.20;0.90;;;6.40;99.90;;;;;;5444034;26;20249;-64
2024/04/16 07:56:57;;;;;;;1.30;0.87;;;6.50;99.90;;;;;;5443208;26;20307;-65
2024/04/16 07:59:23;;;;;;;1.10;1.00;;;6.60;99.90;;;;;;5445194;26;20233;-64
2024/04/16 08:01:48;;;;;;;1.67;0.90;;;6.60;99.90;;;;;;5441640;26;20342;-64
2024/04/16 08:04:14;;;;;;;1.10;1.00;;;6.70;99.90;;;;;;5444410;26;20237;-64
2024/04/16 08:06:40;;;;;;;1.83;1.20;;;6.60;99.90;;;;;;5442149;26;20241;-65
2024/04/16 08:09:05;;;;;;;2.80;1.73;;;6.60;99.90;;;;;;5443924;26;20238;-64
2024/04/16 08:11:31;;;;;;;3.40;1.60;;;6.60;99.90;;;;;;5443409;26;20284;-65
2024/04/16 08:13:57;;;;;;;6.40;1.97;;;6.60;99.90;;;;;;5443394;26;20237;-65
2024/04/16 08:16:23;;;;;;;3.10;2.60;;;6.70;99.90;;;;;;5443820;26;20245;-64
2024/04/16 08:18:49;;;;;;;5.57;3.13;;;6.70;99.90;;;;;;5441314;26;20249;-65
2024/04/16 08:21:14;;;;;;;4.30;3.13;;;6.80;99.90;;;;;;5442534;26;20472;-65
2024/04/16 08:23:40;;;;;;;3.80;3.40;;;6.80;99.90;;;;;;5439031;26;20338;-65
2024/04/16 08:26:07;;;;;;;4.30;3.90;;;6.80;99.90;;;;;;5443453;26;20277;-65
2024/04/16 08:28:33;;;;;;;5.00;4.50;;;6.90;99.90;;;;;;5442327;26;20688;-65
2024/04/16 08:30:59;;;;;;;6.63;4.47;;;7.00;99.90;;;;;;5443046;26;20503;-64
2024/04/16 08:33:25;;;;;;;6.90;4.50;;;7.10;99.90;;;;;;5441269;26;20455;-65
2024/04/16 08:35:52;;;;;;;7.20;5.40;;;7.10;99.90;;;;;;5440686;26;20447;-65
2024/04/16 08:38:19;;;;;;;6.17;5.00;;;7.20;99.90;;;;;;5443328;26;20581;-65
2024/04/16 08:40:45;;;;;;;9.03;5.47;;;7.20;99.90;;;;;;5437344;26;20519;-65
2024/04/16 08:43:12;;;;;;;7.63;6.40;;;7.30;99.90;;;;;;5437400;26;20443;-65
2024/04/16 08:45:38;;;;;;;7.30;6.23;;;7.40;99.90;;;;;;5437664;26;20455;-65
2024/04/16 08:48:05;;;;;;;8.00;5.63;;;7.50;99.90;;;;;;5438676;26;21098;-64
2024/04/16 08:50:33;;;;;;;12.20;6.17;;;7.50;99.90;;;;;;5435516;26;20573;-64
2024/04/16 08:53:00;;;;;;;6.20;5.23;;;7.60;99.90;;;;;;5437408;26;21092;-64
2024/04/16 08:55:26;;;;;;;6.27;5.67;;;7.60;99.90;;;;;;5437647;26;21147;-64
2024/04/16 08:57:53;;;;;;;6.73;6.13;;;7.70;99.90;;;;;;5436038;26;20516;-65
2024/04/16 09:00:20;;;;;;;10.47;6.90;;;7.70;99.90;;;;;;5438482;26;20962;-65
2024/04/16 09:02:46;;;;;;;7.30;6.33;;;7.80;99.90;;;;;;5433598;26;20479;-65
2024/04/16 09:05:12;;;;;;;9.30;5.80;;;7.80;99.90;;;;;;5438695;26;21153;-65
2024/04/16 09:07:39;;;;;;;9.67;5.70;;;7.80;99.90;;;;;;5436712;26;20512;-65
2024/04/16 09:10:15;;;;;;;8.20;5.80;;;7.80;99.90;;;;;;5435223;26;20455;-64
2024/04/16 09:12:44;;;;;;;6.87;5.70;;;7.80;99.90;;;;;;5435309;26;20506;-65
2024/04/16 09:15:12;;;;;;;7.33;5.87;;;7.80;99.90;;;;;;5435885;26;21067;-65
2024/04/16 09:17:54;;;;;;;6.20;5.07;;;7.90;99.90;;;;;;5436631;26;20456;-65
2024/04/16 09:20:26;;;;;;;9.90;5.30;;;8.00;99.90;;;;;;5438522;26;20456;-65
2024/04/16 09:22:53;;;;;;;5.33;4.50;;;8.10;99.90;;;;;;5435361;26;20501;-65
2024/04/16 09:25:20;;;;;;;7.73;5.23;;;8.10;99.90;;;;;;5438391;26;20459;-65
2024/04/16 09:27:47;;;;;;;9.77;5.03;;;8.10;99.90;;;;;;5434697;26;21021;-65
2024/04/16 09:30:13;;;;;;;7.40;4.80;;;8.20;99.90;;;;;;5437488;26;20499;-64
2024/04/16 09:32:41;;;;;;;6.17;3.83;;;8.30;99.90;;;;;;5435253;26;21308;-65
2024/04/16 09:35:07;;;;;;;7.40;3.57;;;8.30;99.90;;;;;;5433975;26;21280;-65
2024/04/16 09:37:33;;;;;;;6.60;3.37;;;8.40;99.90;;;;;;5436676;26;20499;-65
2024/04/16 09:39:59;;;;;;;5.67;3.10;;;8.50;99.90;;;;;;5436463;26;20518;-65
2024/04/16 09:42:31;;;;;;;10.30;3.60;;;8.50;99.90;;;;;;5436597;26;20451;-65
2024/04/16 09:44:58;;;;;;;5.47;3.63;;;8.50;99.90;;;;;;5436126;26;20467;-65
2024/04/16 09:47:25;;;;;;;9.73;5.27;;;8.60;99.90;;;;;;5437611;26;20471;-65
2024/04/16 09:49:54;;;;;;;6.53;5.93;;;8.70;99.90;;;;;;5432500;26;20564;-65
2024/04/16 09:52:20;;;;;;;8.43;5.67;;;8.70;99.90;;;;;;5438468;26;20569;-65
2024/04/16 09:54:48;;;;;;;6.33;5.73;;;8.80;99.90;;;;;;5433034;26;20468;-65
2024/04/16 09:57:19;;;;;;;5.43;4.93;;;8.80;99.90;;;;;;5437175;26;20475;-65
2024/04/16 09:59:51;;;;;;;6.93;5.13;;;8.90;99.90;;;;;;5434511;26;20455;-65
2024/04/16 10:02:16;;;;;;;8.23;5.10;;;8.90;99.90;;;;;;5435777;26;20519;-65
2024/04/16 10:04:42;;;;;;;6.67;5.20;;;9.00;99.90;;;;;;5434185;26;20459;-65
2024/04/16 10:07:08;;;;;;;6.80;4.93;;;9.10;99.90;;;;;;5436661;26;20271;-65
2024/04/16 10:09:34;;;;;;;10.03;4.97;;;9.20;99.90;;;;;;5392223;26;20454;-65
2024/04/16 10:12:01;;;;;;;6.20;4.60;;;9.30;99.90;;;;;;5434915;26;20624;-65
2024/04/16 10:14:29;;;;;;;6.83;5.00;;;9.30;99.90;;;;;;5433503;26;21196;-65
2024/04/16 10:16:55;;;;;;;7.10;4.00;;;9.20;99.90;;;;;;5434419;26;20512;-65
2024/04/16 10:19:21;;;;;;;5.97;3.97;;;9.20;99.90;;;;;;5435719;26;20463;-65
2024/04/16 10:21:48;;;;;;;3.93;3.50;;;9.20;99.90;;;;;;5434667;26;21038;-65
2024/04/16 10:24:19;;;;;;;4.23;3.03;;;9.30;99.90;;;;;;5437372;26;20354;-65
2024/04/16 10:26:47;;;;;;;7.10;3.23;;;9.40;99.90;;;;;;5432821;26;20459;-65
2024/04/16 10:29:17;;;;;;;7.83;3.27;;;9.40;99.90;;;;;;5437138;26;20504;-65
2024/04/16 10:31:49;;;;;;;4.83;2.80;;;9.50;99.90;;;;;;5389668;26;20550;-65
2024/04/16 10:34:23;;;;;;;3.80;2.77;;;9.60;99.90;;;;;;5427598;26;20511;-65
2024/04/16 10:36:51;;;;;;;2.97;2.10;;;9.70;99.90;;;;;;5431006;26;20507;-65
2024/04/16 10:39:17;;;;;;;3.53;2.23;;;9.80;99.90;;;;;;5434312;26;20531;-65
2024/04/16 10:41:54;;;;;;;5.07;1.93;;;9.80;99.90;;;;;;5433295;26;20460;-65
2024/04/16 10:44:21;;;;;;;2.83;1.77;;;9.80;99.90;;;;;;5436101;26;20927;-65
2024/04/16 10:46:51;;;;;;;3.90;2.60;;;9.80;99.90;;;;;;5430622;26;20561;-65
2024/04/16 10:49:18;;;;;;;2.63;1.90;;;9.80;99.90;;;;;;5433103;26;21012;-65
2024/04/16 10:51:44;;;;;;;2.40;1.60;;;9.80;99.90;;;;;;5388012;26;20503;-65
2024/04/16 10:54:11;;;;;;;7.80;4.50;;;9.80;99.90;;;;;;5435641;26;20471;-65
2024/04/16 10:56:37;;;;;;;2.30;1.70;;;9.80;99.90;;;;;;5434178;26;20534;-65
2024/04/16 10:59:06;;;;;;;2.53;1.67;;;9.80;99.90;;;;;;5434406;26;20553;-65
2024/04/16 11:01:33;;;;;;;1.60;1.50;;;9.80;99.90;;;;;;5435938;26;20602;-65
2024/04/16 11:04:18;;;;;;;2.23;1.80;;;9.90;99.90;;;;;;5431556;26;21265;-65
2024/04/16 11:06:46;;;;;;;3.57;1.47;;;10.10;99.90;;;;;;5431516;26;20838;-65
2024/04/16 11:09:13;;;;;;;2.20;1.87;;;10.30;99.90;;;;;;5401003;26;20451;-65
2024/04/16 11:11:39;;;;;;;3.17;1.60;;;10.50;99.90;;;;;;5433102;26;20468;-65
2024/04/16 11:14:07;;;;;;;3.13;2.17;;;10.70;99.90;;;;;;5434234;26;20459;-65
2024/04/16 11:16:33;;;;;;;4.30;1.13;;;10.80;99.90;;;;;;5436659;26;20455;-65
2024/04/16 11:18:59;;;;;;;2.60;1.33;;;10.90;99.90;;;;;;5432487;26;21307;-65
2024/04/16 11:21:31;;;;;;;4.70;2.70;;;10.90;99.90;;;;;;5434817;26;21024;-65
2024/04/16 11:23:58;;;;;;;2.57;1.50;;;10.90;99.90;;;;;;5431153;26;20459;-65
2024/04/16 11:26:24;;;;;;;1.90;1.30;;;10.90;99.90;;;;;;5435145;26;20527;-65
2024/04/16 11:28:51;;;;;;;1.27;1.13;;;10.90;99.90;;;;;;5431646;26;20870;-65
2024/04/16 11:31:19;;;;;;;1.87;1.40;;;10.90;99.90;;;;;;5434441;26;20519;-65
2024/04/16 11:33:46;;;;;;;3.30;1.30;;;10.90;99.90;;;;;;5430318;26;21337;-65
2024/04/16 11:36:16;;;;;;;1.50;1.20;;;11.00;99.90;;;;;;5435063;26;20467;-65
2024/04/16 11:38:42;;;;;;;5.03;1.63;;;11.00;99.90;;;;;;5386948;26;20854;-65
2024/04/16 11:41:09;;;;;;;1.63;1.00;;;11.10;99.90;;;;;;5434989;26;20793;-65
2024/04/16 11:43:35;;;;;;;1.50;1.40;;;11.10;99.90;;;;;;5432992;26;21060;-65
2024/04/16 11:46:04;;;;;;;2.17;1.20;;;11.10;99.90;;;;;;5432385;26;21188;-65
2024/04/16 11:48:33;;;;;;;2.90;1.20;;;10.90;99.90;;;;;;5433578;26;20451;-65
2024/04/16 11:50:59;;;;;;;3.60;1.50;;;11.00;99.90;;;;;;5429641;26;21079;-65
2024/04/16 11:53:24;;;;;;;1.57;1.00;;;11.00;99.90;;;;;;5434003;26;20567;-65
2024/04/16 11:55:50;;;;;;;1.23;1.00;;;11.10;99.90;;;;;;5429626;26;20242;-65
2024/04/16 11:58:16;;;;;;;3.90;1.10;;;11.20;99.90;;;;;;5434621;26;20234;-65
2024/04/16 12:00:42;;;;;;;2.37;1.33;;;11.30;99.90;;;;;;5433045;26;20230;-65
2024/04/16 12:03:08;;;;;;;1.90;1.00;;;11.30;99.90;;;;;;5433399;26;21101;-65
2024/04/16 12:05:34;;;;;;;2.40;1.07;;;11.30;99.90;;;;;;5433445;26;20566;-65
2024/04/16 12:08:00;;;;;;;2.50;1.07;;;11.30;99.90;;;;;;5431488;26;20926;-65
2024/04/16 12:10:27;;;;;;;1.80;0.90;;;11.30;99.90;;;;;;5434183;26;20463;-65
2024/04/16 12:12:54;;;;;;;1.83;1.10;;;11.40;99.90;;;;;;5427025;26;20500;-65
2024/04/16 12:15:19;;;;;;;4.50;1.70;;;11.40;99.90;;;;;;5433823;26;21284;-65
2024/04/16 12:17:45;;;;;;;1.80;1.17;;;11.40;99.90;;;;;;5402271;26;20577;-65
2024/04/16 12:20:11;;;;;;;1.73;1.00;;;11.40;99.90;;;;;;5427738;26;20273;-65
2024/04/16 12:22:37;;;;;;;0.80;0.80;;;11.40;99.90;;;;;;5434263;26;20326;-65
2024/04/16 12:25:03;;;;;;;0.80;0.80;;;11.40;99.90;;;;;;5432799;26;20271;-65
2024/04/16 12:27:28;;;;;;;0.73;0.73;;;11.30;99.90;;;;;;5434020;26;20565;-65
2024/04/16 12:29:54;;;;;;;1.43;0.77;;;11.20;99.90;;;;;;5432316;26;20505;-65
2024/04/16 12:32:20;;;;;;;1.27;0.90;;;11.10;99.90;;;;;;5438414;26;20238;-65
2024/04/16 12:34:46;;;;;;;1.10;0.70;;;11.20;99.90;;;;;;5434233;26;20293;-65
2024/04/16 12:37:11;;;;;;;0.70;0.70;;;11.10;99.90;;;;;;5434680;26;20257;-65
2024/04/16 12:39:37;;;;;;;1.63;1.10;;;11.10;99.90;;;;;;5434808;26;20727;-64
2024/04/16 12:42:03;;;;;;;1.43;1.20;;;11.10;99.90;;;;;;5434697;26;20229;-66
2024/04/16 12:44:29;;;;;;;4.17;0.90;;;11.20;99.90;;;;;;5435005;26;20802;-64
2024/04/16 12:46:55;;;;;;;1.37;0.83;;;11.20;99.90;;;;;;5434568;26;20924;-64
2024/04/16 12:49:23;;;;;;;2.57;1.30;;;11.40;99.90;;;;;;5435659;26;20274;-64
2024/04/16 12:51:49;;;;;;;1.23;1.07;;;11.50;99.90;;;;;;5431598;26;20233;-64